Flight Track Log - Related Links

Times and Time Zones

All times are in EDT time to prevent confusion due to time zone crossing. See the SKW6306 flight status page for this flight to view local times or setup timezone preferences in your user account.

Time Position Orientation Groundspeed Altitude Reporting Facility
EDT Latitude Longitude Course Direction KTS MPH feet Rate Location/Type
Mon 02:20:48 PM 39.8667 -104.8000 346° North 218 251 7,600  Level Denver TRACON
Mon 02:21:36 PM 39.9167 -104.8167 346° North 238 274 9,500 2,195 Climbing Denver TRACON
Mon 02:22:00 PM 40.1946 -104.7800 347° North  Level FlightAware Approximate
Mon 02:22:10 PM 39.9464 -104.8150 North 236 272 10,600  Level Denver Center
Mon 02:23:00 PM 40.3103 -104.8148 347° North  Level FlightAware Approximate
Mon 02:23:12 PM 40.0217 -104.8189 358° North 249 287 12,400  Level Denver Center
Mon 02:24:00 PM 40.4254 -104.8529 346° North  Level FlightAware Approximate
Mon 02:24:13 PM 40.0983 -104.8247 357° North 274 315 13,700  Level Denver Center
Mon 02:25:00 PM 40.5406 -104.8902 348° North  Level FlightAware Approximate
Mon 02:25:15 PM 40.1847 -104.8272 359° North 309 356 14,600  Level Denver Center
Mon 02:26:00 PM 40.6564 -104.9243 346° North  Level FlightAware Approximate
Mon 02:26:17 PM 40.2892 -104.8319 358° North 347 399 16,100  Level Denver Center
Mon 02:27:19 PM 40.3856 -104.8361 358° North 347 399 17,600 1,415 Climbing Denver Center
Mon 02:28:20 PM 40.4858 -104.8431 357° North 360 414 19,000 1,366 Climbing Denver Center
Mon 02:29:22 PM 40.5931 -104.8647 351° North 362 417 20,400 1,161 Climbing Denver Center
Mon 02:30:24 PM 40.6939 -104.8867 351° North 369 425 21,400 919 Climbing Denver Center
Mon 02:31:26 PM 40.8006 -104.9064 352° North 370 426 22,300 878 Climbing Denver Center
Mon 02:32:27 PM 40.9081 -104.9283 351° North 387 445 23,200 927 Climbing Denver Center
Mon 02:33:29 PM 41.0169 -104.9500 351° North 396 456 24,200 1,065 Climbing Denver Center
Mon 02:34:31 PM 41.1397 -104.9783 350° North 399 459 25,400 927 Climbing Denver Center
Mon 02:35:32 PM 41.2453 -104.9975 352° North 400 460 26,100 585 Climbing Denver Center
Mon 02:36:34 PM 41.3722 -105.0236 351° North 409 471 26,600 484 Climbing Denver Center
Mon 02:37:36 PM 41.4822 -105.0447 352° North 414 476 27,100 488 Climbing Denver Center
Mon 02:38:37 PM 41.5942 -105.0697 351° North 422 486 27,600 488 Climbing Denver Center
Mon 02:39:39 PM 41.7256 -105.0986 351° North 425 489 28,100 484 Climbing Denver Center
Mon 02:40:41 PM 41.8383 -105.1219 351° North 426 490 28,600 537 Climbing Denver Center
Mon 02:41:42 PM 41.9700 -105.1497 351° North 427 491 29,200 537 Climbing Denver Center
Mon 02:42:44 PM 42.0839 -105.1736 351° North 430 495 29,700 488 Climbing Denver Center
Mon 02:43:45 PM 42.1964 -105.1975 351° North 427 491 30,200 488 Climbing Denver Center
Mon 02:44:47 PM 42.3269 -105.2256 351° North 425 489 30,700 444 Climbing Denver Center
Mon 02:46:00 PM 42.4397 -105.2500 351° North 426 490 31,200 533 Climbing Denver Center
Mon 02:47:02 PM 42.5906 -105.2822 351° North 426 490 31,900 387 Climbing Denver Center
Mon 02:48:04 PM 42.7047 -105.3092 350° North 430 495 32,000 49 Climbing Denver Center
Mon 02:49:05 PM 42.8425 -105.3389 351° North 443 510 32,000  Level Denver Center
Mon 02:50:07 PM 42.9639 -105.3642 351° North 456 525 32,000  Level Denver Center
Mon 02:51:08 PM 43.0833 -105.3894 351° North 455 524 32,000  Level Denver Center
Mon 02:52:10 PM 43.2222 -105.4197 351° North 452 520 32,000  Level Denver Center
Mon 02:53:12 PM 43.3400 -105.4450 351° North 448 516 32,000  Level Denver Center
Mon 02:54:13 PM 43.4781 -105.4750 351° North 449 517 32,000  Level Denver Center
Mon 02:55:15 PM 43.5950 -105.5017 351° North 447 514 32,000  Level Denver Center
Mon 02:56:16 PM 43.7114 -105.5281 351° North 444 511 32,000  Level Denver Center
Mon 02:57:18 PM 43.8472 -105.5581 351° North 444 511 32,000  Level Denver Center
Mon 02:58:19 PM 43.9644 -105.5856 350° North 444 511 32,000  Level Denver Center
Mon 02:59:21 PM 44.1050 -105.6178 351° North 452 520 32,000  Level Denver Center
Mon 03:00:23 PM 44.2253 -105.6467 350° North 455 524 32,000  Level Denver Center
Mon 03:01:24 PM 44.3664 -105.6781 351° North 458 527 32,000  Level Denver Center
Mon 03:02:09 PM 44.4489 -105.6964 351° North 461 531 32,000  Level Salt Lake Center
Mon 03:03:11 PM 44.5908 -105.7300 350° North 463 533 32,000  Level Salt Lake Center
Mon 03:04:12 PM 44.7125 -105.7575 351° North 463 533 32,000  Level Salt Lake Center
Mon 03:04:53 PM 44.7728 -105.7703 351° North 463 533 32,000  Level Denver Center
Mon 03:05:56 PM 44.9358 -105.8072 351° North 464 534 32,000  Level Denver Center
Mon 03:06:57 PM 45.0572 -105.8350 351° North 463 533 32,000  Level Denver Center
Mon 03:07:59 PM 45.1994 -105.8689 350° North 464 534 32,000  Level Denver Center
Mon 03:09:01 PM 45.3214 -105.8989 350° North 464 534 32,000  Level Denver Center
Mon 03:10:02 PM 45.4644 -105.9350 350° North 465 535 32,000  Level Denver Center
Mon 03:11:04 PM 45.5867 -105.9636 351° North 466 536 32,000  Level Denver Center
Mon 03:12:06 PM 45.7086 -105.9936 350° North 465 535 32,000  Level Denver Center
Mon 03:13:28 PM 45.8922 -106.0364 351° North 463 533 32,000  Level Salt Lake Center
Mon 03:14:30 PM 46.0186 -106.0656 351° North 462 532 32,000  Level Salt Lake Center
Mon 03:15:32 PM 46.1450 -106.0953 351° North 461 531 32,000  Level Salt Lake Center
Mon 03:16:34 PM 46.2733 -106.1272 350° North 462 532 32,000  Level Salt Lake Center
Mon 03:17:35 PM 46.4014 -106.1575 351° North 464 534 32,000  Level Salt Lake Center
Mon 03:18:37 PM 46.5306 -106.1900 350° North 466 536 32,000  Level Salt Lake Center
Mon 03:19:39 PM 46.6858 -106.2292 350° North 469 540 32,000  Level Salt Lake Center
Mon 03:20:41 PM 46.8153 -106.2633 350° North 470 541 32,000  Level Salt Lake Center
Mon 03:21:43 PM 46.9461 -106.2958 350° North 472 543 32,000  Level Salt Lake Center
Mon 03:22:44 PM 47.0764 -106.3292 350° North 474 545 32,000  Level Salt Lake Center
Mon 03:23:46 PM 47.2075 -106.3633 350° North 475 547 32,000  Level Salt Lake Center
Mon 03:24:48 PM 47.3400 -106.3972 350° North 479 551 32,000  Level Salt Lake Center
Mon 03:25:50 PM 47.4703 -106.4303 350° North 478 550 32,000  Level Salt Lake Center
Mon 03:26:52 PM 47.6258 -106.4711 350° North 474 545 32,000  Level Salt Lake Center
Mon 03:27:53 PM 47.7553 -106.5044 350° North 473 544 32,000  Level Salt Lake Center
Mon 03:28:55 PM 47.8850 -106.5375 350° North 474 545 32,000  Level Salt Lake Center
Mon 03:29:57 PM 48.0144 -106.5714 350° North 472 543 32,000  Level Salt Lake Center
Mon 03:30:59 PM 48.1458 -106.6061 350° North 475 547 32,000  Level Salt Lake Center
Mon 03:32:00 PM 48.2736 -106.6522 346° North 474 545 32,000  Level Salt Lake Center
Mon 03:33:02 PM 48.3969 -106.7164 341° North 471 542 32,000  Level Salt Lake Center
Mon 03:34:04 PM 48.5453 -106.7889 342° North 469 540 32,000  Level Salt Lake Center
Mon 03:35:06 PM 48.6694 -106.8503 342° North 469 540 32,000  Level Salt Lake Center
Mon 03:36:07 PM 48.7925 -106.9111 342° North 467 537 32,000  Level Salt Lake Center
Mon 03:37:02 PM 48.9000 -107.0000 331° Northwest 470 541 32,000  Level Winnipeg Center
Mon 03:38:02 PM 49.0167 -107.0500 344° North 470 541 32,000  Level Winnipeg Center
Mon 03:39:02 PM 49.1333 -107.1167 340° North 470 541 32,000  Level Winnipeg Center
Mon 03:40:02 PM 49.2500 -107.1667 344° North 470 541 32,000  Level Winnipeg Center
Mon 03:41:02 PM 49.3833 -107.1333 North 480 552 32,000  Level Winnipeg Center
Mon 03:42:02 PM 49.5333 -107.1167 North 480 552 32,000  Level Winnipeg Center
Mon 03:43:02 PM 49.6667 -107.1000 North 480 552 32,000  Level Winnipeg Center
Mon 03:44:02 PM 49.7833 -107.0333 20° North 480 552 32,000  Level Winnipeg Center
Mon 03:45:02 PM 49.9167 -107.0167 North 480 552 32,000  Level Winnipeg Center
Mon 03:46:02 PM 50.0500 -106.9833 North 480 552 32,000  Level Winnipeg Center
Mon 03:47:02 PM 50.1833 -106.9667 North 480 552 32,000  Level Winnipeg Center
Mon 03:48:02 PM 50.3167 -106.9500 North 480 552 32,000  Level Winnipeg Center
Mon 03:50:00 PM 50.5368 -106.9390 North  Level FlightAware Approximate
Mon 03:51:02 PM 50.7000 -106.8333 North 470 541 32,000  Level Winnipeg Center
Mon 03:52:02 PM 50.8333 -106.8167 North 470 541 31,800 -1,050 Descending Winnipeg Center
Mon 03:53:02 PM 50.9667 -106.7667 13° North 470 541 29,900 -1,600 Descending Winnipeg Center
Mon 03:54:02 PM 51.0833 -106.7333 10° North 470 541 28,600 -1,950 Descending Winnipeg Center
Mon 03:55:02 PM 51.2167 -106.7167 North 430 495 26,000 -3,050 Descending Winnipeg Center
Mon 03:56:02 PM 51.3333 -106.6833 10° North 430 495 22,500 -3,750 Descending Winnipeg Center
Mon 03:57:02 PM 51.4500 -106.6500 10° North 430 495 18,500 -3,850 Descending Winnipeg Center
Mon 03:58:02 PM 51.5500 -106.6167 12° North 420 483 14,800 -3,600 Descending Winnipeg Center
Mon 03:59:02 PM 51.6833 -106.6000 North 400 460 11,300 -2,400 Descending Winnipeg Center
Mon 04:00:02 PM 51.7667 -106.5833 North 360 414 10,000 -1,300 Descending Winnipeg Center
Mon 04:01:02 PM 51.8500 -106.5500 14° North 300 345 8,700 -1,550 Descending Winnipeg Center
Mon 04:02:02 PM 51.9167 -106.5333 North 280 322 6,900 -1,900 Descending Winnipeg Center
Mon 04:03:02 PM 52.0000 -106.5333 360° North 280 322 4,900 -1,600 Descending Winnipeg Center
Mon 04:04:02 PM 52.0667 -106.5167 North 270 311 3,700 -600 Descending Winnipeg Center
Mon 04:05:02 PM 52.1167 -106.5333 348° North 210 242 3,700  Level Winnipeg Center

Login

Don't have an account? Register now (free) for customized features, flight alerts, and more!